createdAt,value
2022-08-31T00:00:40.338Z,50.908081
2022-08-31T00:01:40.362Z,50.908085
2022-08-31T00:02:40.323Z,50.908070
2022-08-31T00:03:40.318Z,50.908142
2022-08-31T00:04:40.342Z,50.908142
2022-08-31T00:05:40.296Z,50.908115
2022-08-31T00:06:40.321Z,50.908112
2022-08-31T00:07:40.455Z,50.908100
2022-08-31T00:08:40.272Z,50.908073
2022-08-31T00:09:40.267Z,50.908077
2022-08-31T00:10:40.258Z,50.908119
2022-08-31T00:11:40.273Z,50.908119
2022-08-31T00:12:40.256Z,50.908123
2022-08-31T00:13:40.227Z,50.908096
2022-08-31T00:14:40.222Z,50.908115
2022-08-31T00:15:40.219Z,50.908115
2022-08-31T00:16:40.268Z,50.908119
2022-08-31T00:17:40.211Z,50.908115
2022-08-31T00:18:40.194Z,50.908112
2022-08-31T00:19:40.195Z,50.908112
2022-08-31T00:20:40.180Z,50.908131
2022-08-31T00:21:40.197Z,50.908165
2022-08-31T00:22:40.175Z,50.908134
2022-08-31T00:23:40.158Z,50.908131
2022-08-31T00:24:40.154Z,50.908096
2022-08-31T00:25:40.142Z,50.908092
2022-08-31T00:26:40.158Z,50.908115
2022-08-31T00:27:40.132Z,50.908115
2022-08-31T00:28:40.117Z,50.908115
2022-08-31T00:29:40.109Z,50.908081
2022-08-31T00:30:40.104Z,50.908100
2022-08-31T00:31:40.189Z,50.908085
2022-08-31T00:32:40.094Z,50.908108
2022-08-31T00:33:40.077Z,50.908115
2022-08-31T00:34:40.077Z,50.908119
2022-08-31T00:35:40.067Z,50.908119
2022-08-31T00:36:40.085Z,50.908134
2022-08-31T00:37:40.050Z,50.908127
2022-08-31T00:38:40.041Z,50.908115
2022-08-31T00:39:40.052Z,50.908127
2022-08-31T00:40:44.463Z,50.908077
2022-08-31T00:41:41.050Z,50.908127
2022-08-31T00:42:40.006Z,50.908131
2022-08-31T00:43:40.015Z,50.908100
2022-08-31T00:44:39.995Z,50.908089
2022-08-31T00:45:40.026Z,50.908123
2022-08-31T00:46:39.975Z,50.908138
2022-08-31T00:47:39.992Z,50.908119
2022-08-31T00:48:39.965Z,50.908127
2022-08-31T00:49:39.953Z,50.908142
2022-08-31T00:50:39.939Z,50.908123
2022-08-31T00:51:39.933Z,50.908146
2022-08-31T00:52:39.954Z,50.908142
2022-08-31T00:53:39.916Z,50.908157
2022-08-31T00:54:39.909Z,50.908169
2022-08-31T00:55:39.904Z,50.908184
2022-08-31T00:56:39.895Z,50.908146
2022-08-31T00:57:39.918Z,50.908108
2022-08-31T00:58:39.885Z,50.908096
2022-08-31T00:59:39.869Z,50.908062
2022-08-31T01:00:39.889Z,50.908123
2022-08-31T01:01:39.855Z,50.908142
2022-08-31T01:02:39.923Z,50.908123
2022-08-31T01:03:39.844Z,50.908119
2022-08-31T01:04:39.846Z,50.908127
2022-08-31T01:05:39.834Z,50.908150
2022-08-31T01:06:39.823Z,50.908138
2022-08-31T01:07:39.851Z,50.908123
2022-08-31T01:08:39.805Z,50.908146
2022-08-31T01:09:39.800Z,50.908150
2022-08-31T01:10:40.790Z,50.908150
2022-08-31T01:11:39.773Z,50.908115
2022-08-31T01:12:39.801Z,50.908127
2022-08-31T01:13:39.765Z,50.908180
2022-08-31T01:14:39.759Z,50.908203
2022-08-31T01:15:39.751Z,50.908207
2022-08-31T01:16:39.782Z,50.908142
2022-08-31T01:17:39.758Z,50.908169
2022-08-31T01:18:39.741Z,50.908237
2022-08-31T01:19:39.719Z,50.908192
2022-08-31T01:20:45.751Z,50.908138
2022-08-31T01:21:40.700Z,50.908268
2022-08-31T01:22:39.723Z,50.908268
2022-08-31T01:23:39.685Z,50.908203
2022-08-31T01:24:39.680Z,50.908169
2022-08-31T01:25:39.671Z,50.908176
2022-08-31T01:26:39.668Z,50.908173
2022-08-31T01:27:39.681Z,50.908199
2022-08-31T01:28:39.652Z,50.908104
2022-08-31T01:29:39.642Z,50.908161
2022-08-31T01:30:39.641Z,50.908279
2022-08-31T01:31:39.686Z,50.908249
2022-08-31T01:32:39.644Z,50.908180
2022-08-31T01:33:39.609Z,50.908180
2022-08-31T01:34:39.597Z,50.908092
2022-08-31T01:35:39.596Z,50.908146
2022-08-31T01:36:39.598Z,50.908020
2022-08-31T01:37:39.609Z,50.907993
2022-08-31T01:38:39.577Z,50.908104
2022-08-31T01:39:39.561Z,50.908096
2022-08-31T01:40:39.597Z,50.908127
2022-08-31T01:41:39.547Z,50.908058
2022-08-31T01:42:39.591Z,50.908066
2022-08-31T01:43:39.536Z,50.908043
2022-08-31T01:44:39.530Z,50.908043
2022-08-31T01:45:39.521Z,50.908016
2022-08-31T01:46:39.543Z,50.907955
2022-08-31T01:47:39.534Z,50.907963
2022-08-31T01:48:41.509Z,50.908031
2022-08-31T01:49:39.494Z,50.908058
2022-08-31T01:50:39.483Z,50.908070
2022-08-31T01:51:39.476Z,50.908012
2022-08-31T01:52:39.490Z,50.908009
2022-08-31T01:53:39.455Z,50.907986
2022-08-31T01:54:39.455Z,50.907883
2022-08-31T01:55:39.447Z,50.907795
2022-08-31T01:56:39.433Z,50.907848
2022-08-31T01:57:39.456Z,50.908058
2022-08-31T01:58:39.421Z,50.908134
2022-08-31T01:59:39.404Z,50.908215
2022-08-31T02:00:39.480Z,50.908180
2022-08-31T02:01:39.517Z,50.908157
2022-08-31T02:02:40.456Z,50.908192
2022-08-31T02:03:39.375Z,50.908119
2022-08-31T02:04:39.369Z,50.908131
2022-08-31T02:05:39.358Z,50.908092
2022-08-31T02:06:39.357Z,50.908089
2022-08-31T02:07:39.384Z,50.908077
2022-08-31T02:08:39.341Z,50.908123
2022-08-31T02:09:39.332Z,50.908142
2022-08-31T02:10:39.328Z,50.908207
2022-08-31T02:11:39.316Z,50.908161
2022-08-31T02:12:39.331Z,50.908134
2022-08-31T02:13:39.312Z,50.908070
2022-08-31T02:14:39.293Z,50.908184
2022-08-31T02:15:39.286Z,50.908157
2022-08-31T02:16:39.358Z,50.908161
2022-08-31T02:17:39.297Z,50.908115
2022-08-31T02:18:39.257Z,50.908092
2022-08-31T02:19:39.247Z,50.908138
2022-08-31T02:20:39.248Z,50.908173
2022-08-31T02:21:39.241Z,50.908119
2022-08-31T02:22:39.259Z,50.908051
2022-08-31T02:23:39.219Z,50.908085
2022-08-31T02:24:39.221Z,50.908089
2022-08-31T02:25:39.214Z,50.908180
2022-08-31T02:26:39.206Z,50.908180
2022-08-31T02:27:39.192Z,50.908150
2022-08-31T02:28:39.204Z,50.908123
2022-08-31T02:29:39.175Z,50.908138
2022-08-31T02:30:39.170Z,50.908161
2022-08-31T02:31:39.230Z,50.908154
2022-08-31T02:32:39.155Z,50.908161
2022-08-31T02:33:39.174Z,50.908150
2022-08-31T02:34:39.141Z,50.908173
2022-08-31T02:35:39.164Z,50.908150
2022-08-31T02:36:39.124Z,50.908154
2022-08-31T02:37:39.126Z,50.908150
2022-08-31T02:38:39.142Z,50.908115
2022-08-31T02:39:39.099Z,50.908146
2022-08-31T02:40:39.135Z,50.908134
2022-08-31T02:41:39.079Z,50.908108
2022-08-31T02:42:52.988Z,50.908184
2022-08-31T02:43:40.093Z,50.908150
2022-08-31T02:44:39.059Z,50.908100
2022-08-31T02:45:39.046Z,50.908096
2022-08-31T02:46:39.111Z,50.908131
2022-08-31T02:47:39.029Z,50.908165
2022-08-31T02:48:39.059Z,50.908138
2022-08-31T02:49:39.009Z,50.908131
2022-08-31T02:50:39.004Z,50.908142
2022-08-31T02:51:39.005Z,50.908077
2022-08-31T02:52:38.991Z,50.908089
2022-08-31T02:53:39.009Z,50.908066
2022-08-31T02:54:38.987Z,50.908127
2022-08-31T02:55:38.967Z,50.908108
2022-08-31T02:56:38.957Z,50.908119
2022-08-31T02:57:38.955Z,50.908089
2022-08-31T02:58:38.969Z,50.907978
2022-08-31T02:59:38.936Z,50.908028
2022-08-31T03:00:38.935Z,50.908123
2022-08-31T03:01:39.020Z,50.908066
2022-08-31T03:02:38.992Z,50.908066
2022-08-31T03:03:38.938Z,50.908108
2022-08-31T03:04:38.909Z,50.908058
2022-08-31T03:05:38.891Z,50.908096
2022-08-31T03:06:38.879Z,50.908173
2022-08-31T03:07:38.874Z,50.908138
2022-08-31T03:08:38.896Z,50.908119
2022-08-31T03:09:38.862Z,50.908131
2022-08-31T03:10:38.851Z,50.908173
2022-08-31T03:11:38.845Z,50.908081
2022-08-31T03:12:38.835Z,50.908058
2022-08-31T03:13:38.852Z,50.908077
2022-08-31T03:14:38.826Z,50.908070
2022-08-31T03:15:38.844Z,50.908237
2022-08-31T03:16:38.803Z,50.908150
2022-08-31T03:17:38.794Z,50.908108
2022-08-31T03:18:38.810Z,50.908104
2022-08-31T03:19:38.773Z,50.908123
2022-08-31T03:20:38.766Z,50.908150
2022-08-31T03:21:38.753Z,50.908138
2022-08-31T03:22:39.752Z,50.908051
2022-08-31T03:23:38.771Z,50.908096
2022-08-31T03:24:38.895Z,50.908127
2022-08-31T03:25:39.697Z,50.908142
2022-08-31T03:26:38.724Z,50.908096
2022-08-31T03:27:38.718Z,50.908131
2022-08-31T03:28:38.730Z,50.908207
2022-08-31T03:29:38.699Z,50.908173
2022-08-31T03:30:38.692Z,50.908062
2022-08-31T03:31:38.724Z,50.908066
2022-08-31T03:32:38.679Z,50.908081
2022-08-31T03:33:38.693Z,50.908104
2022-08-31T03:34:38.662Z,50.908138
2022-08-31T03:35:38.660Z,50.908123
2022-08-31T03:36:38.646Z,50.908157
2022-08-31T03:37:38.634Z,50.908123
2022-08-31T03:38:38.654Z,50.908131
2022-08-31T03:39:38.627Z,50.908138
2022-08-31T03:40:38.662Z,50.908150
2022-08-31T03:41:38.602Z,50.908161
2022-08-31T03:42:38.587Z,50.908142
2022-08-31T03:43:39.611Z,50.908146
2022-08-31T03:44:38.586Z,50.908165
2022-08-31T03:45:38.577Z,50.908089
2022-08-31T03:46:38.586Z,50.908112
2022-08-31T03:47:44.723Z,50.908085
2022-08-31T03:48:39.585Z,50.908146
2022-08-31T03:49:38.550Z,50.908138
2022-08-31T03:50:38.541Z,50.908154
2022-08-31T03:51:38.529Z,50.908165
2022-08-31T03:52:38.518Z,50.908142
2022-08-31T03:53:38.532Z,50.908154
2022-08-31T03:54:38.497Z,50.908146
2022-08-31T03:55:38.500Z,50.908142
2022-08-31T03:56:38.484Z,50.908138
2022-08-31T03:57:38.474Z,50.908134
2022-08-31T03:58:38.506Z,50.908131
2022-08-31T03:59:38.461Z,50.908089
2022-08-31T04:00:38.452Z,50.908131
2022-08-31T04:01:38.504Z,50.908176
2022-08-31T04:02:38.472Z,50.908123
2022-08-31T04:03:38.460Z,50.908184
2022-08-31T04:04:38.425Z,50.908112
2022-08-31T04:05:38.411Z,50.908169
2022-08-31T04:06:38.405Z,50.908131
2022-08-31T04:07:42.713Z,50.908150
2022-08-31T04:08:38.415Z,50.908142
2022-08-31T04:09:38.381Z,50.908119
2022-08-31T04:10:38.369Z,50.908089
2022-08-31T04:11:45.301Z,50.908066
2022-08-31T04:12:39.354Z,50.908073
2022-08-31T04:13:38.377Z,50.908070
2022-08-31T04:14:38.342Z,50.908081
2022-08-31T04:15:38.402Z,50.908123
2022-08-31T04:16:38.325Z,50.908096
2022-08-31T04:17:38.312Z,50.908028
2022-08-31T04:18:38.341Z,50.908066
2022-08-31T04:19:38.302Z,50.908100
2022-08-31T04:20:38.294Z,50.908150
2022-08-31T04:21:38.276Z,50.908092
2022-08-31T04:22:38.267Z,50.908115
2022-08-31T04:23:39.309Z,50.908127
2022-08-31T04:24:38.263Z,50.908123
2022-08-31T04:25:38.249Z,50.908173
2022-08-31T04:26:38.246Z,50.908154
2022-08-31T04:27:38.259Z,50.908043
2022-08-31T04:28:38.226Z,50.908066
2022-08-31T04:29:38.250Z,50.907833
2022-08-31T04:30:38.244Z,50.908112
2022-08-31T04:31:38.207Z,50.908150
2022-08-31T04:32:38.197Z,50.908173
2022-08-31T04:33:38.192Z,50.908119
2022-08-31T04:34:38.206Z,50.908115
2022-08-31T04:35:38.165Z,50.908150
2022-08-31T04:36:39.175Z,50.908127
2022-08-31T04:37:38.161Z,50.908127
2022-08-31T04:38:38.157Z,50.908127
2022-08-31T04:39:49.519Z,50.908119
2022-08-31T04:40:39.262Z,50.908115
2022-08-31T04:41:38.125Z,50.908131
2022-08-31T04:42:38.123Z,50.908146
2022-08-31T04:43:38.112Z,50.908161
2022-08-31T04:44:38.128Z,50.908161
2022-08-31T04:45:38.123Z,50.908119
2022-08-31T04:46:38.083Z,50.908119
2022-08-31T04:47:38.083Z,50.908138
2022-08-31T04:48:38.072Z,50.908138
2022-08-31T04:49:38.090Z,50.908134
2022-08-31T04:50:42.357Z,50.908157
2022-08-31T04:51:39.040Z,50.908146
2022-08-31T04:52:38.035Z,50.908154
2022-08-31T04:53:38.059Z,50.908127
2022-08-31T04:54:38.020Z,50.908119
2022-08-31T04:55:38.014Z,50.908085
2022-08-31T04:56:38.008Z,50.908115
2022-08-31T04:57:37.990Z,50.908131
2022-08-31T04:58:38.012Z,50.908134
2022-08-31T04:59:37.982Z,50.908119
2022-08-31T05:00:37.977Z,50.908123
2022-08-31T05:01:42.857Z,50.908108
2022-08-31T05:02:39.051Z,50.908092
2022-08-31T05:03:37.970Z,50.908054
2022-08-31T05:04:37.933Z,50.908100
2022-08-31T05:05:37.930Z,50.908127
2022-08-31T05:06:37.918Z,50.908119
2022-08-31T05:07:37.911Z,50.908112
2022-08-31T05:08:37.930Z,50.908066
2022-08-31T05:09:37.897Z,50.908138
2022-08-31T05:10:37.898Z,50.908035
2022-08-31T05:11:37.880Z,50.908123
2022-08-31T05:12:37.869Z,50.908127
2022-08-31T05:13:37.895Z,50.908123
2022-08-31T05:14:37.860Z,50.908089
2022-08-31T05:15:37.865Z,50.908058
2022-08-31T05:16:37.835Z,50.908073
2022-08-31T05:17:38.834Z,50.908092
2022-08-31T05:18:37.828Z,50.908020
2022-08-31T05:19:40.991Z,50.908051
2022-08-31T05:20:38.812Z,50.908070
2022-08-31T05:21:37.804Z,50.908066
2022-08-31T05:22:37.799Z,50.907990
2022-08-31T05:23:37.782Z,50.908058
2022-08-31T05:24:37.806Z,50.908096
2022-08-31T05:25:37.768Z,50.908077
2022-08-31T05:26:38.057Z,50.908085
2022-08-31T05:27:37.754Z,50.907970
2022-08-31T05:28:37.750Z,50.908039
2022-08-31T05:29:37.766Z,50.908070
2022-08-31T05:30:37.787Z,50.908092
2022-08-31T05:31:37.727Z,50.908089
2022-08-31T05:32:37.758Z,50.908039
2022-08-31T05:33:37.708Z,50.908031
2022-08-31T05:34:37.734Z,50.908081
2022-08-31T05:35:37.694Z,50.908070
2022-08-31T05:36:37.689Z,50.908062
2022-08-31T05:37:37.674Z,50.908119
2022-08-31T05:38:37.664Z,50.908165
2022-08-31T05:39:37.688Z,50.908123
2022-08-31T05:40:37.696Z,50.908154
2022-08-31T05:41:37.642Z,50.908154
2022-08-31T05:42:37.634Z,50.908146
2022-08-31T05:43:37.620Z,50.908142
2022-08-31T05:44:38.652Z,50.908123
2022-08-31T05:45:37.613Z,50.908123
2022-08-31T05:46:37.663Z,50.908115
2022-08-31T05:47:37.590Z,50.908131
2022-08-31T05:48:37.597Z,50.908154
2022-08-31T05:49:37.605Z,50.908146
2022-08-31T05:50:37.571Z,50.908119
2022-08-31T05:51:38.493Z,50.908127
2022-08-31T05:52:38.558Z,50.908146
2022-08-31T05:53:37.543Z,50.908131
2022-08-31T05:54:37.565Z,50.908123
2022-08-31T05:55:37.532Z,50.908131
2022-08-31T05:56:37.524Z,50.908138
2022-08-31T05:57:37.518Z,50.908119
2022-08-31T05:58:37.509Z,50.908119
2022-08-31T05:59:37.526Z,50.908131
2022-08-31T06:00:37.494Z,50.908138
2022-08-31T06:01:37.522Z,50.908100
2022-08-31T06:02:37.479Z,50.908104
2022-08-31T06:03:37.476Z,50.908165
2022-08-31T06:04:37.488Z,50.908134
2022-08-31T06:05:37.500Z,50.908142
2022-08-31T06:06:38.447Z,50.908123
2022-08-31T06:07:37.443Z,50.908123
2022-08-31T06:08:37.437Z,50.908119
2022-08-31T06:09:37.451Z,50.908123
2022-08-31T06:10:37.427Z,50.908119
2022-08-31T06:11:37.408Z,50.908115
2022-08-31T06:12:37.404Z,50.908123
2022-08-31T06:13:37.394Z,50.908119
2022-08-31T06:14:38.794Z,50.908119
2022-08-31T06:15:42.201Z,50.908104
2022-08-31T06:16:38.435Z,50.908115
2022-08-31T06:17:37.365Z,50.908115
2022-08-31T06:18:37.352Z,50.908131
2022-08-31T06:19:37.381Z,50.908115
2022-08-31T06:20:37.344Z,50.908112
2022-08-31T06:21:37.327Z,50.908142
2022-08-31T06:22:37.331Z,50.908142
2022-08-31T06:23:37.341Z,50.908131
2022-08-31T06:24:37.309Z,50.908131
2022-08-31T06:25:37.332Z,50.908142
2022-08-31T06:26:37.297Z,50.908146
2022-08-31T06:27:37.284Z,50.908119
2022-08-31T06:28:37.278Z,50.908112
2022-08-31T06:29:37.307Z,50.908138
2022-08-31T06:30:47.802Z,50.908157
2022-08-31T06:31:38.275Z,50.908176
2022-08-31T06:32:37.241Z,50.908138
2022-08-31T06:33:37.234Z,50.908161
2022-08-31T06:34:37.227Z,50.908138
2022-08-31T06:35:37.244Z,50.908127
2022-08-31T06:36:37.214Z,50.908108
2022-08-31T06:37:37.210Z,50.908134
2022-08-31T06:38:37.194Z,50.908131
2022-08-31T06:39:37.191Z,50.908131
2022-08-31T06:40:37.310Z,50.908108
2022-08-31T06:41:37.177Z,50.908081
2022-08-31T06:42:37.160Z,50.908112
2022-08-31T06:43:37.160Z,50.908131
2022-08-31T06:44:37.148Z,50.908108
2022-08-31T06:45:37.163Z,50.908085
2022-08-31T06:46:37.197Z,50.908024
2022-08-31T06:47:37.126Z,50.908096
2022-08-31T06:48:37.122Z,50.908104
2022-08-31T06:49:37.104Z,50.908096
2022-08-31T06:50:37.125Z,50.908085
2022-08-31T06:51:37.101Z,50.908066
2022-08-31T06:52:39.094Z,50.908092
2022-08-31T06:53:38.074Z,50.908142
2022-08-31T06:54:37.062Z,50.908218
2022-08-31T06:55:37.089Z,50.908207
2022-08-31T06:56:37.053Z,50.908119
2022-08-31T06:57:37.046Z,50.908100
2022-08-31T06:58:37.035Z,50.908100
2022-08-31T06:59:37.055Z,50.908150
2022-08-31T07:00:37.016Z,50.908188
2022-08-31T07:01:37.063Z,50.908039
2022-08-31T07:02:37.089Z,50.908123
2022-08-31T07:03:37.003Z,50.908127
2022-08-31T07:04:37.018Z,50.908077
2022-08-31T07:05:36.984Z,50.908173
2022-08-31T07:06:36.977Z,50.908169
2022-08-31T07:07:36.979Z,50.908123
2022-08-31T07:08:36.956Z,50.908134
2022-08-31T07:09:36.968Z,50.908138
2022-08-31T07:10:36.947Z,50.908112
2022-08-31T07:11:39.829Z,50.908123
2022-08-31T07:12:37.925Z,50.908112
2022-08-31T07:13:36.927Z,50.908115
2022-08-31T07:14:36.965Z,50.908127
2022-08-31T07:15:36.906Z,50.908127
2022-08-31T07:16:37.032Z,50.908115
2022-08-31T07:17:36.891Z,50.908115
2022-08-31T07:18:36.888Z,50.908131
2022-08-31T07:19:36.915Z,50.908134
2022-08-31T07:20:36.864Z,50.908161
2022-08-31T07:21:36.854Z,50.908127
2022-08-31T07:22:36.853Z,50.908150
2022-08-31T07:23:36.845Z,50.908165
2022-08-31T07:24:36.861Z,50.908188
2022-08-31T07:25:36.822Z,50.908154
2022-08-31T07:26:36.851Z,50.908134
2022-08-31T07:27:36.811Z,50.908092
2022-08-31T07:28:36.804Z,50.908127
2022-08-31T07:29:36.829Z,50.908138
2022-08-31T07:30:36.855Z,50.908138
2022-08-31T07:31:36.785Z,50.908184
2022-08-31T07:32:36.777Z,50.908138
2022-08-31T07:33:36.767Z,50.908131
2022-08-31T07:34:36.785Z,50.908157
2022-08-31T07:35:36.745Z,50.908131
2022-08-31T07:36:36.742Z,50.908169
2022-08-31T07:37:36.734Z,50.908119
2022-08-31T07:38:36.883Z,50.908131
2022-08-31T07:39:36.719Z,50.908081
2022-08-31T07:40:36.786Z,50.908123
2022-08-31T07:41:36.707Z,50.908131
2022-08-31T07:42:36.687Z,50.908123
2022-08-31T07:43:36.682Z,50.908073
2022-08-31T07:44:36.685Z,50.908096
2022-08-31T07:45:39.119Z,50.908096
2022-08-31T07:46:37.703Z,50.908096
2022-08-31T07:47:36.651Z,50.908115
2022-08-31T07:48:36.643Z,50.908089
2022-08-31T07:49:36.630Z,50.908066
2022-08-31T07:50:36.660Z,50.908115
2022-08-31T07:51:36.614Z,50.908089
2022-08-31T07:52:36.605Z,50.908092
2022-08-31T07:53:36.602Z,50.908104
2022-08-31T07:54:36.590Z,50.908104
2022-08-31T07:55:36.610Z,50.908157
2022-08-31T07:56:36.581Z,50.908112
2022-08-31T07:57:36.576Z,50.908119
2022-08-31T07:58:36.565Z,50.908108
2022-08-31T07:59:36.554Z,50.908127
2022-08-31T08:00:36.572Z,50.908104
2022-08-31T08:01:36.588Z,50.908092
2022-08-31T08:02:36.705Z,50.908104
2022-08-31T08:03:36.521Z,50.908108
2022-08-31T08:04:36.513Z,50.908108
2022-08-31T08:05:36.540Z,50.908119
2022-08-31T08:06:36.498Z,50.908131
2022-08-31T08:07:36.498Z,50.908104
2022-08-31T08:08:36.485Z,50.908070
2022-08-31T08:09:36.471Z,50.908119
2022-08-31T08:10:36.495Z,50.908138
2022-08-31T08:11:36.455Z,50.908112
2022-08-31T08:12:36.450Z,50.908108
2022-08-31T08:13:36.443Z,50.908104
2022-08-31T08:14:36.441Z,50.908108
2022-08-31T08:15:36.456Z,50.908104
2022-08-31T08:16:36.481Z,50.908092
2022-08-31T08:17:36.413Z,50.908131
2022-08-31T08:18:36.402Z,50.908150
2022-08-31T08:19:36.395Z,50.908112
2022-08-31T08:20:38.292Z,50.908119
2022-08-31T08:21:36.380Z,50.908112
2022-08-31T08:22:51.319Z,50.908096
2022-08-31T08:23:38.374Z,50.908096
2022-08-31T08:24:36.361Z,50.908123
2022-08-31T08:25:36.387Z,50.908119
2022-08-31T08:26:36.342Z,50.908096
2022-08-31T08:27:36.342Z,50.908066
2022-08-31T08:28:39.732Z,50.908077
2022-08-31T08:29:37.313Z,50.908092
2022-08-31T08:30:36.338Z,50.908089
2022-08-31T08:31:36.344Z,50.908096
2022-08-31T08:32:36.302Z,50.908096
2022-08-31T08:33:36.288Z,50.908100
2022-08-31T08:34:36.279Z,50.908085
2022-08-31T08:35:36.302Z,50.908131
2022-08-31T08:36:36.260Z,50.908096
2022-08-31T08:37:57.126Z,50.908100
2022-08-31T08:38:38.246Z,50.908096
2022-08-31T08:39:36.247Z,50.908077
2022-08-31T08:40:36.317Z,50.908092
2022-08-31T08:41:36.229Z,50.908104
2022-08-31T08:42:36.218Z,50.908123
2022-08-31T08:43:36.206Z,50.908146
2022-08-31T08:44:36.205Z,50.908131
2022-08-31T08:45:36.254Z,50.908081
2022-08-31T08:46:36.262Z,50.908089
2022-08-31T08:47:38.793Z,50.908089
2022-08-31T08:48:36.167Z,50.908092
2022-08-31T08:49:36.161Z,50.908146
2022-08-31T08:50:36.153Z,50.908081
2022-08-31T08:51:36.175Z,50.908123
2022-08-31T08:52:36.137Z,50.908138
2022-08-31T08:53:36.130Z,50.908161
2022-08-31T08:54:36.116Z,50.908173
2022-08-31T08:55:36.141Z,50.908089
2022-08-31T08:56:36.120Z,50.908070
2022-08-31T08:57:36.098Z,50.908085
2022-08-31T08:58:36.087Z,50.908100
2022-08-31T08:59:36.108Z,50.908112
2022-08-31T09:00:36.098Z,50.908047
2022-08-31T09:01:36.135Z,50.908096
2022-08-31T09:02:36.130Z,50.908104
2022-08-31T09:03:36.048Z,50.908127
2022-08-31T09:04:36.045Z,50.908100
2022-08-31T09:05:36.069Z,50.908104
2022-08-31T09:06:46.009Z,50.908092
2022-08-31T09:07:37.017Z,50.908081
2022-08-31T09:08:36.014Z,50.908173
2022-08-31T09:09:36.007Z,50.908142
2022-08-31T09:10:36.033Z,50.908104
2022-08-31T09:11:35.991Z,50.908089
2022-08-31T09:12:35.985Z,50.908043
2022-08-31T09:13:35.969Z,50.908096
2022-08-31T09:14:35.964Z,50.908123
2022-08-31T09:15:36.039Z,50.908123
2022-08-31T09:16:36.031Z,50.908092
2022-08-31T09:17:35.941Z,50.908077
2022-08-31T09:18:35.935Z,50.908085
2022-08-31T09:19:35.929Z,50.908134
2022-08-31T09:20:35.954Z,50.908131
2022-08-31T09:21:35.909Z,50.908108
2022-08-31T09:22:35.902Z,50.908066
2022-08-31T09:23:35.921Z,50.908073
2022-08-31T09:24:35.890Z,50.908066
2022-08-31T09:25:35.875Z,50.908051
2022-08-31T09:26:35.900Z,50.908024
2022-08-31T09:27:35.860Z,50.907959
2022-08-31T09:28:35.853Z,50.908096
2022-08-31T09:29:35.841Z,50.908260
2022-08-31T09:30:35.832Z,50.908138
2022-08-31T09:31:35.961Z,50.908066
2022-08-31T09:32:35.820Z,50.908096
2022-08-31T09:33:35.812Z,50.908081
2022-08-31T09:34:35.804Z,50.908089
2022-08-31T09:35:35.793Z,50.908131
2022-08-31T09:36:35.809Z,50.908092
2022-08-31T09:37:35.775Z,50.908081
2022-08-31T09:38:35.779Z,50.908047
2022-08-31T09:39:37.212Z,50.908001
2022-08-31T09:40:35.783Z,50.907990
2022-08-31T09:41:35.775Z,50.908100
2022-08-31T09:42:35.740Z,50.908115
2022-08-31T09:43:35.733Z,50.908020
2022-08-31T09:44:35.739Z,50.908104
2022-08-31T09:45:38.903Z,50.907990
2022-08-31T09:46:36.734Z,50.908012
2022-08-31T09:47:35.706Z,50.908024
2022-08-31T09:48:35.702Z,50.908066
2022-08-31T09:49:35.687Z,50.908062
2022-08-31T09:50:35.760Z,50.908077
2022-08-31T09:51:35.698Z,50.908062
2022-08-31T09:52:35.669Z,50.908100
2022-08-31T09:53:35.670Z,50.908081
2022-08-31T09:54:35.656Z,50.908165
2022-08-31T09:55:35.641Z,50.908089
2022-08-31T09:56:35.659Z,50.908192
2022-08-31T09:57:35.628Z,50.908215
2022-08-31T09:58:35.621Z,50.908379
2022-08-31T09:59:35.609Z,50.908241
2022-08-31T10:00:35.599Z,50.908054
2022-08-31T10:01:35.665Z,50.908058
2022-08-31T10:02:35.590Z,50.908058
2022-08-31T10:03:35.591Z,50.908016
2022-08-31T10:04:35.614Z,50.908016
2022-08-31T10:05:35.592Z,50.907982
2022-08-31T10:06:35.577Z,50.908020
2022-08-31T10:07:35.545Z,50.908001
2022-08-31T10:08:35.527Z,50.908001
2022-08-31T10:09:36.528Z,50.908001
2022-08-31T10:10:35.538Z,50.907887
2022-08-31T10:11:36.516Z,50.907860
2022-08-31T10:12:35.505Z,50.908005
2022-08-31T10:13:35.503Z,50.908062
2022-08-31T10:14:35.489Z,50.908020
2022-08-31T10:15:35.549Z,50.908020
2022-08-31T10:16:35.505Z,50.908020
2022-08-31T10:17:35.468Z,50.908020
2022-08-31T10:18:35.457Z,50.908043
2022-08-31T10:19:35.451Z,50.908001
2022-08-31T10:20:35.473Z,50.908100
2022-08-31T10:21:35.434Z,50.908192
2022-08-31T10:22:35.421Z,50.908073
2022-08-31T10:23:35.416Z,50.908070
2022-08-31T10:24:35.423Z,50.908058
2022-08-31T10:25:35.397Z,50.907948
2022-08-31T10:26:35.421Z,50.908035
2022-08-31T10:27:35.385Z,50.908123
2022-08-31T10:28:35.380Z,50.908054
2022-08-31T10:29:35.372Z,50.908051
2022-08-31T10:30:35.360Z,50.908100
2022-08-31T10:31:35.476Z,50.908100
2022-08-31T10:32:35.346Z,50.908157
2022-08-31T10:33:35.339Z,50.908131
2022-08-31T10:34:35.329Z,50.908077
2022-08-31T10:35:35.362Z,50.908070
2022-08-31T10:36:35.344Z,50.907986
2022-08-31T10:37:35.307Z,50.908089
2022-08-31T10:38:35.299Z,50.908047
2022-08-31T10:39:35.291Z,50.908150
2022-08-31T10:40:35.394Z,50.908157
2022-08-31T10:41:35.299Z,50.908115
2022-08-31T10:42:35.254Z,50.908142
2022-08-31T10:43:36.260Z,50.908157
2022-08-31T10:44:35.249Z,50.908127
2022-08-31T10:45:35.247Z,50.908150
2022-08-31T10:46:35.334Z,50.908161
2022-08-31T10:47:35.228Z,50.908199
2022-08-31T10:48:35.220Z,50.908131
2022-08-31T10:49:35.212Z,50.908119
2022-08-31T10:50:35.229Z,50.908150
2022-08-31T10:51:35.198Z,50.908173
2022-08-31T10:52:35.187Z,50.908112
2022-08-31T10:53:39.861Z,50.908089
2022-08-31T10:54:36.176Z,50.908104
2022-08-31T10:55:35.193Z,50.908150
2022-08-31T10:56:35.152Z,50.908100
2022-08-31T10:57:36.156Z,50.908001
2022-08-31T10:58:35.143Z,50.908119
2022-08-31T10:59:35.137Z,50.908138
2022-08-31T11:00:35.158Z,50.908138
2022-08-31T11:01:35.177Z,50.908154
2022-08-31T11:02:35.113Z,50.908134
2022-08-31T11:03:35.181Z,50.908150
2022-08-31T11:04:35.171Z,50.908115
2022-08-31T11:05:35.125Z,50.908031
2022-08-31T11:06:35.083Z,50.908039
2022-08-31T11:07:35.075Z,50.908100
2022-08-31T11:08:35.066Z,50.908142
2022-08-31T11:09:35.066Z,50.908157
2022-08-31T11:10:35.087Z,50.908112
2022-08-31T11:11:35.047Z,50.908134
2022-08-31T11:12:35.043Z,50.908142
2022-08-31T11:13:35.028Z,50.908031
2022-08-31T11:14:35.023Z,50.908066
2022-08-31T11:15:35.073Z,50.908134
2022-08-31T11:16:35.009Z,50.908142
2022-08-31T11:17:35.005Z,50.908131
2022-08-31T11:18:34.993Z,50.908131
2022-08-31T11:19:34.982Z,50.908134
2022-08-31T11:20:34.977Z,50.908161
2022-08-31T11:21:34.994Z,50.908138
2022-08-31T11:22:34.964Z,50.908138
2022-08-31T11:23:34.953Z,50.908173
2022-08-31T11:24:37.535Z,50.908169